Terminal Aerodrome Forecast
Issued by NWS

Home | Current Version | Previous Version | Text Only | Print | Product List | Glossary On
Versions: 1 2 3 4 5 6 7 8 9 10 11 12 13 14 15 16
000
FTUS42 KMLB 261507 AAA
TAFTIX
TAF AMD
KTIX 261507Z 2615/2712 28016KT P6SM VCSH BKN024 BKN100
     FM261800 26015G20KT P6SM VCSH SCT025 BKN035 BKN250
     FM262300 26010KT P6SM VCSH SCT020 BKN035 BKN250
     FM270500 23007KT P6SM SCT010 BKN030=

USA.gov is the U.S. government's official web portal to all federal, state and local government web resources and services.